Tropical Cyclones
[Index]
Main Index Home Page Stock Weather Photos Extreme Storms Discussion Storm News and Storm Chasing Reports Tropical Cyclones / Hurricanes / Typhoons Weather Data and Links Wild Fires / Bushfires Weather Observation Techniques Weather Picture Catalogue Tornado Pictures and Reports Stock Video Footage and DVDs for sale
Season 2001-2002 Tropical Cyclone BESSI-BAKO Track Map
Season 2001-2002 Summaries: [BoM-AU] [JTWC-AU] [JTWC-SIO] [JTWC-SPAC] [JTWC-SH]
<<- Previous TC | JTWC 2001-2002 Season | Next TC ->>

click for intensity scale information  Lat/long Grid: Show Hide

 Date Labels: Show Hide

Joint Typhoon Warning Centre Cyclone Data

Name: BESSI-BAKO

25 Nov 2001 00:00 UTC to 05 Dec 2001 06:00 UTC

    date/time    lat    long     hPa   cat  kts
2001-11-25 00    6.5    95.3    1002         25          
2001-11-25 06    6.7    95.3    1004         20          
2001-11-25 12    6.9    95.3    1002         25          
2001-11-25 18    7.1    95.3    1002         25          
2001-11-26 00    7.3    95.3    1002         25          
2001-11-26 06    7.5    95.1    1002         25          
2001-11-26 12    7.7    94.9    1002         25          
2001-11-26 18    8.0    94.4    1002         25          
2001-11-27 00    8.2    93.9    1002         25          
2001-11-27 06    8.3    93.4    1000         30          
2001-11-27 12    8.4    92.9     997         35          
2001-11-27 18    8.7    92.4     991    1    45          
2001-11-28 00    9.0    92.0     991    1    45          
2001-11-28 06    9.3    91.6     987    1    50          
2001-11-28 12   10.1    91.6     984    2    55          
2001-11-28 18   10.7    91.6     984    2    55          
2001-11-29 00   11.3    91.6     984    2    55          
2001-11-29 06   12.2    91.4     984    2    55          
2001-11-29 12   13.3    91.1     987    1    50          
2001-11-29 18   13.8    90.6     991    1    45          
2001-11-30 00   14.2    89.5     994    1    40          
2001-11-30 06   14.4    88.4     991    1    45          
2001-11-30 12   14.5    87.5     991    1    45          
2001-11-30 18   14.6    86.8     984    2    55          
2001-12-01 00   14.7    86.1     984    2    55          
2001-12-01 06   14.9    85.8     984    2    55          
2001-12-01 12   15.2    85.5     980    2    60          
2001-12-01 18   15.5    85.4     976    2    65          
2001-12-02 00   15.8    85.4     976    2    65          
2001-12-02 06   16.2    85.4     976    2    65          
2001-12-02 12   16.6    85.6     976    2    65          
2001-12-02 18   17.0    85.8     967    3    75          
2001-12-03 00   17.2    86.0     967    3    75          
2001-12-03 06   17.4    86.2     972    2    70          
2001-12-03 12   17.5    86.4     976    2    65          
2001-12-03 18   17.7    86.5     976    2    65          
2001-12-04 00   17.9    86.6     984    2    55          
2001-12-04 06   18.0    86.5     991    1    45          
2001-12-04 12   18.0    86.4     994    1    40          
2001-12-04 18   18.0    86.3     997         35          
2001-12-05 00   18.0    86.2    1000         25          
2001-12-05 06   18.2    86.0    1002         25          
Winds are 1-min average.

Tropical cyclone tracks developed by Michael Bath using data from the Joint Typhoon Warning Centre Best Tracks and Google Maps.


[Australian Severe Weather index] [Copyright Notice] [Email Contacts] [Search This Site] [Privacy Policy]
Document: tropical_cyclone_bessi-bako.htm Updated: 28 June 2017